MAPA DE AEROPUERTO

INFORMACIÓN METAR y TAF

METAR FOR LEBL
ADDS - METARS form results

(1326 UTC 23 January 2020)
Data provider http://aviationweather.gov/metar/data/
 
METAR text: LEBL 231300Z 22006KT 9999 FEW015 14/09 Q1021 NOSIG
Conditions at: LEBL (BARCELONA AIRPOR, ES) observed 1300 UTC 23 January 2020
Temperature: 14.0°C (57°F)
Dewpoint: 9.0°C (48°F) [RH = 72%]
Pressure (altimeter): 30.15 inches Hg (1021.0 mb)
Winds: from the SW (220 degrees) at 7 MPH (6 knots; 3.1 m/s)
Visibility: 6 or more miles (10+ km)
Ceiling: at least 12,000 feet AGL
Clouds: few clouds at 1500 feet AGL
Weather: no significant weather observed at this time

METAR text: LEBL 231230Z 22008KT 9999 FEW015 SCT035 13/10 Q1021 NOSIG
Conditions at: LEBL (BARCELONA AIRPOR, ES) observed 1230 UTC 23 January 2020
Temperature: 13.0°C (55°F)
Dewpoint: 10.0°C (50°F) [RH = 82%]
Pressure (altimeter): 30.15 inches Hg (1021.0 mb)
Winds: from the SW (220 degrees) at 9 MPH (8 knots; 4.1 m/s)
Visibility: 6 or more miles (10+ km)
Ceiling: at least 12,000 feet AGL
Clouds: few clouds at 1500 feet AGL
scattered clouds at 3500 feet AGL
Weather: no significant weather observed at this time

Forecast for: LEBL (BARCELONA AIRPOR, ES)
Text: TAF LEBL 231100Z 2312/2412 22006KT 9999 SCT030 TX16/2313Z TN08/2406Z
Forecast period: 1200 to 1900 UTC 23 January 2020
Forecast type: FROM: standard forecast or significant change
Winds: from the SW (220 degrees) at 7 MPH (6 knots; 3.1 m/s)
Visibility: 6 or more miles 10+ km)
Ceiling: at least 12,000 feet AGL
Clouds: scattered clouds at 3000 feet AGL
Weather: no significant weather forecast for this period
Text: BECMG 2319/2321 33008KT
Forecast period: 1900 UTC 23 January 2020 to 1200 UTC 24 January 2020
Forecast type: BECOMING: Conditions expected to become as follows by 2100 UTC 23 January 2020
Winds: from the NNW (330 degrees) at 9 MPH (8 knots; 4.1 m/s)
Visibility: 6 or more miles 10+ km)
Ceiling: at least 12,000 feet AGL
Clouds: scattered clouds at 3000 feet AGL
Weather: no significant weather forecast for this period